createdAt,value
2023-03-21T00:00:29.157Z,72.04
2023-03-21T00:02:55.905Z,72.71
2023-03-21T00:05:22.915Z,71.80
2023-03-21T00:07:49.449Z,71.66
2023-03-21T00:10:23.951Z,72.38
2023-03-21T00:12:56.558Z,73.45
2023-03-21T00:15:27.561Z,72.80
2023-03-21T00:17:57.706Z,71.11
2023-03-21T00:20:24.476Z,71.69
2023-03-21T00:22:51.026Z,71.94
2023-03-21T00:25:17.691Z,72.15
2023-03-21T00:28:00.972Z,72.84
2023-03-21T00:30:30.857Z,73.43
2023-03-21T00:32:58.477Z,72.37
2023-03-21T00:35:57.996Z,73.15
2023-03-21T00:38:15.231Z,74.06
2023-03-21T00:40:48.776Z,73.76
2023-03-21T00:43:17.210Z,72.67
2023-03-21T00:45:45.341Z,72.74
2023-03-21T00:48:12.602Z,73.25
2023-03-21T00:50:40.118Z,73.00
2023-03-21T00:53:07.201Z,73.98
2023-03-21T00:55:34.186Z,73.64
2023-03-21T00:58:02.401Z,72.65
2023-03-21T01:00:29.897Z,72.56
2023-03-21T01:03:04.458Z,73.50
2023-03-21T01:05:40.469Z,73.47
2023-03-21T01:08:20.669Z,71.62
2023-03-21T01:10:51.808Z,73.44
2023-03-21T01:13:20.898Z,74.38
2023-03-21T01:15:54.848Z,72.96
2023-03-21T01:18:26.029Z,73.69
2023-03-21T01:20:54.222Z,72.42
2023-03-21T01:23:20.926Z,70.81
2023-03-21T01:25:49.496Z,72.19
2023-03-21T01:28:16.447Z,71.62
2023-03-21T01:30:47.934Z,72.14
2023-03-21T01:33:15.083Z,72.12
2023-03-21T01:35:50.485Z,71.63
2023-03-21T01:38:21.900Z,72.65
2023-03-21T01:40:49.848Z,74.41
2023-03-21T01:43:34.951Z,73.55
2023-03-21T01:46:20.819Z,72.80
2023-03-21T01:49:02.502Z,74.30
2023-03-21T01:51:32.334Z,73.92
2023-03-21T01:53:59.150Z,73.26
2023-03-21T01:56:32.877Z,73.58
2023-03-21T01:59:07.814Z,73.49
2023-03-21T02:01:34.621Z,73.12
2023-03-21T02:04:02.182Z,73.04
2023-03-21T02:06:36.593Z,73.58
2023-03-21T02:09:09.906Z,72.65
2023-03-21T02:11:37.985Z,73.87
2023-03-21T02:14:07.065Z,73.87
2023-03-21T02:16:43.125Z,74.82
2023-03-21T02:19:53.769Z,75.09
2023-03-21T02:22:41.628Z,74.48
2023-03-21T02:25:21.764Z,75.47
2023-03-21T02:28:21.729Z,74.23
2023-03-21T02:31:24.738Z,74.12
2023-03-21T02:34:13.248Z,74.91
2023-03-21T02:37:00.660Z,75.59
2023-03-21T02:39:56.131Z,76.13
2023-03-21T02:42:59.492Z,75.72
2023-03-21T02:45:34.494Z,75.30
2023-03-21T02:48:07.016Z,74.98
2023-03-21T02:50:33.695Z,75.44
2023-03-21T02:53:07.204Z,77.34
2023-03-21T02:55:36.614Z,76.74
2023-03-21T02:58:13.304Z,76.57
2023-03-21T03:00:40.452Z,76.36
2023-03-21T03:03:10.470Z,76.59
2023-03-21T03:05:47.168Z,76.53
2023-03-21T03:09:01.483Z,75.46
2023-03-21T03:11:33.180Z,77.14
2023-03-21T03:17:30.596Z,75.58
2023-03-21T03:20:22.176Z,76.90
2023-03-21T03:22:54.831Z,76.11
2023-03-21T03:25:41.517Z,77.05
2023-03-21T03:28:11.333Z,76.46
2023-03-21T03:30:46.555Z,76.56
2023-03-21T03:33:19.877Z,76.83
2023-03-21T03:35:55.756Z,76.00
2023-03-21T03:38:27.365Z,77.07
2023-03-21T03:41:02.391Z,75.89
2023-03-21T03:43:41.419Z,76.39
2023-03-21T03:46:17.942Z,77.31
2023-03-21T03:49:07.914Z,75.84
2023-03-21T03:51:52.486Z,76.82
2023-03-21T03:54:37.036Z,76.72
2023-03-21T03:57:05.582Z,76.34
2023-03-21T03:59:35.780Z,76.45
2023-03-21T04:02:02.525Z,76.13
2023-03-21T04:04:29.174Z,75.72
2023-03-21T04:06:57.981Z,76.35
2023-03-21T04:09:37.442Z,75.87
2023-03-21T04:12:10.101Z,75.74
2023-03-21T04:14:44.359Z,76.01
2023-03-21T04:17:11.562Z,75.60
2023-03-21T04:19:38.367Z,75.69
2023-03-21T04:22:04.858Z,75.47
2023-03-21T04:24:31.562Z,75.83
2023-03-21T04:26:58.093Z,75.12
2023-03-21T04:29:24.602Z,76.58
2023-03-21T04:31:51.186Z,76.24
2023-03-21T04:34:17.719Z,76.20
2023-03-21T04:36:44.299Z,76.74
2023-03-21T04:39:10.984Z,76.27
2023-03-21T04:41:38.970Z,75.65
2023-03-21T04:44:05.862Z,77.00
2023-03-21T04:46:32.752Z,76.50
2023-03-21T04:48:59.603Z,76.52
2023-03-21T04:51:26.357Z,76.58
2023-03-21T04:53:53.043Z,77.78
2023-03-21T04:56:19.534Z,76.69
2023-03-21T04:58:46.041Z,75.96
2023-03-21T05:01:12.640Z,76.46
2023-03-21T05:03:40.502Z,76.78
2023-03-21T05:06:08.516Z,76.47
2023-03-21T05:08:38.071Z,77.78
2023-03-21T05:11:05.568Z,76.30
2023-03-21T05:13:32.102Z,77.38
2023-03-21T05:15:58.671Z,77.41
2023-03-21T05:18:25.415Z,76.46
2023-03-21T05:20:53.537Z,75.76
2023-03-21T05:23:21.386Z,76.99
2023-03-21T05:25:48.208Z,77.08
2023-03-21T05:28:14.835Z,77.10
2023-03-21T05:30:41.568Z,76.58
2023-03-21T05:33:08.165Z,76.12
2023-03-21T05:35:34.946Z,76.96
2023-03-21T05:38:01.758Z,76.58
2023-03-21T05:40:28.267Z,76.73
2023-03-21T05:42:54.928Z,77.71
2023-03-21T05:45:21.480Z,77.12
2023-03-21T05:47:48.009Z,76.22
2023-03-21T05:50:14.869Z,76.94
2023-03-21T05:52:41.430Z,76.37
2023-03-21T05:55:08.535Z,75.57
2023-03-21T05:57:35.211Z,76.25
2023-03-21T06:00:02.094Z,77.90
2023-03-21T06:02:28.858Z,77.57
2023-03-21T06:04:55.427Z,76.48
2023-03-21T06:07:21.933Z,77.15
2023-03-21T06:09:48.572Z,75.98
2023-03-21T06:12:15.240Z,77.63
2023-03-21T06:14:41.826Z,75.63
2023-03-21T06:17:08.390Z,76.20
2023-03-21T06:19:34.989Z,75.24
2023-03-21T06:22:01.527Z,72.38
2023-03-21T06:24:28.080Z,71.10
2023-03-21T06:26:54.620Z,69.26
2023-03-21T06:29:21.355Z,69.25
2023-03-21T06:31:48.085Z,69.09
2023-03-21T06:34:14.814Z,68.16
2023-03-21T06:36:41.393Z,69.33
2023-03-21T06:39:10.737Z,69.04
2023-03-21T06:41:37.659Z,69.40
2023-03-21T06:44:08.080Z,69.36
2023-03-21T06:46:35.701Z,68.08
2023-03-21T06:49:04.216Z,66.97
2023-03-21T06:51:32.550Z,66.95
2023-03-21T06:53:59.624Z,63.56
2023-03-21T06:56:26.251Z,62.47
2023-03-21T06:58:52.820Z,61.91
2023-03-21T07:01:19.503Z,62.55
2023-03-21T07:03:46.023Z,62.55
2023-03-21T07:06:12.730Z,62.59
2023-03-21T07:08:41.359Z,61.37
2023-03-21T07:11:09.567Z,61.21
2023-03-21T07:13:36.631Z,61.04
2023-03-21T07:16:03.792Z,58.84
2023-03-21T07:18:30.491Z,59.38
2023-03-21T07:20:57.684Z,58.30
2023-03-21T07:23:28.234Z,59.19
2023-03-21T07:25:55.096Z,59.13
2023-03-21T07:28:23.058Z,59.25
2023-03-21T07:30:55.777Z,59.95
2023-03-21T07:33:22.934Z,59.42
2023-03-21T07:35:51.184Z,59.38
2023-03-21T07:38:18.350Z,60.18
2023-03-21T07:40:46.464Z,60.49
2023-03-21T07:43:13.197Z,60.53
2023-03-21T07:45:40.235Z,61.79
2023-03-21T07:48:07.187Z,59.08
2023-03-21T07:50:33.837Z,58.49
2023-03-21T07:53:03.190Z,58.36
2023-03-21T07:55:29.787Z,57.27
2023-03-21T07:57:56.302Z,56.98
2023-03-21T08:00:23.390Z,54.64
2023-03-21T08:02:58.728Z,54.35
2023-03-21T08:05:33.180Z,53.89
2023-03-21T08:07:59.922Z,53.90
2023-03-21T08:10:27.025Z,53.91
2023-03-21T08:12:54.212Z,52.91
2023-03-21T08:15:20.963Z,52.74
2023-03-21T08:17:47.591Z,52.39
2023-03-21T08:20:18.135Z,51.79
2023-03-21T08:22:45.064Z,51.43
2023-03-21T08:25:13.323Z,49.72
2023-03-21T08:27:44.123Z,49.54
2023-03-21T08:30:12.582Z,48.04
2023-03-21T08:32:40.237Z,45.59
2023-03-21T08:35:08.873Z,44.37
2023-03-21T08:37:36.649Z,42.88
2023-03-21T08:40:05.302Z,41.27
2023-03-21T08:42:31.866Z,40.05
2023-03-21T08:44:58.436Z,40.24
2023-03-21T08:47:24.983Z,40.34
2023-03-21T08:49:51.732Z,39.06
2023-03-21T08:52:21.309Z,40.71
2023-03-21T08:54:48.786Z,40.81
2023-03-21T08:57:18.800Z,41.62
2023-03-21T08:59:46.110Z,40.10
2023-03-21T09:02:17.153Z,37.69
2023-03-21T09:04:44.525Z,36.39
2023-03-21T09:07:12.349Z,35.81
2023-03-21T09:09:39.357Z,34.50
2023-03-21T09:12:06.164Z,33.77
2023-03-21T09:14:33.187Z,33.16
2023-03-21T09:16:59.724Z,32.93
2023-03-21T09:19:26.356Z,33.55
2023-03-21T09:21:52.964Z,31.80
2023-03-21T09:24:20.371Z,30.74
2023-03-21T09:26:47.270Z,27.79
2023-03-21T09:29:13.966Z,27.96
2023-03-21T09:31:40.664Z,29.09
2023-03-21T09:34:07.269Z,27.44
2023-03-21T09:36:33.923Z,28.12
2023-03-21T09:39:00.972Z,25.79
2023-03-21T09:41:32.385Z,26.28
2023-03-21T09:44:34.338Z,25.78
2023-03-21T09:47:23.853Z,25.84
2023-03-21T09:50:13.679Z,25.33
2023-03-21T09:52:50.126Z,24.16
2023-03-21T09:55:26.363Z,22.46
2023-03-21T09:58:21.681Z,21.30
2023-03-21T10:00:57.605Z,21.19
2023-03-21T10:03:29.022Z,22.04
2023-03-21T10:05:59.410Z,20.63
2023-03-21T10:08:30.023Z,21.54
2023-03-21T10:11:07.044Z,24.60
2023-03-21T10:13:39.378Z,24.48
2023-03-21T10:16:27.638Z,23.83
2023-03-21T10:18:55.277Z,23.77
2023-03-21T10:21:51.276Z,22.63
2023-03-21T10:24:13.833Z,22.82
2023-03-21T10:26:42.909Z,23.13
2023-03-21T10:29:17.217Z,21.10
2023-03-21T10:31:47.475Z,21.24
2023-03-21T10:34:44.755Z,19.58
2023-03-21T10:37:14.360Z,19.18
2023-03-21T10:39:49.499Z,20.34
2023-03-21T10:42:22.441Z,21.69
2023-03-21T10:44:50.884Z,22.87
2023-03-21T10:47:27.175Z,21.36
2023-03-21T10:50:11.285Z,21.52
2023-03-21T10:52:49.559Z,22.08
2023-03-21T10:55:19.077Z,21.82
2023-03-21T10:57:47.383Z,23.64
2023-03-21T11:00:21.536Z,21.52
2023-03-21T11:02:50.998Z,21.22
2023-03-21T11:05:25.542Z,21.14
2023-03-21T11:08:11.866Z,24.00
2023-03-21T11:10:52.525Z,23.27
2023-03-21T11:13:41.471Z,24.61
2023-03-21T11:16:32.060Z,24.70
2023-03-21T11:19:04.665Z,24.65
2023-03-21T11:21:39.177Z,24.40
2023-03-21T11:24:07.622Z,23.16
2023-03-21T11:26:37.656Z,23.29
2023-03-21T11:29:38.515Z,23.17
2023-03-21T11:32:26.190Z,22.70
2023-03-21T11:35:22.054Z,23.81
2023-03-21T11:37:54.911Z,25.60
2023-03-21T11:40:31.098Z,26.97
2023-03-21T11:43:18.411Z,27.36
2023-03-21T11:45:58.924Z,28.42
2023-03-21T11:48:25.941Z,28.41
2023-03-21T11:51:04.021Z,28.31
2023-03-21T11:53:40.196Z,29.61
2023-03-21T11:56:27.273Z,29.37
2023-03-21T11:59:07.596Z,29.60
2023-03-21T12:02:12.059Z,29.17
2023-03-21T12:04:41.848Z,29.29
2023-03-21T12:07:11.336Z,29.43
2023-03-21T12:09:51.705Z,30.17
2023-03-21T12:12:36.542Z,29.37
2023-03-21T12:15:19.993Z,29.95
2023-03-21T12:18:01.681Z,30.92
2023-03-21T12:20:39.305Z,31.05
2023-03-21T12:23:20.903Z,31.45
2023-03-21T12:26:03.646Z,32.64
2023-03-21T12:28:45.316Z,32.99
2023-03-21T12:31:35.014Z,32.06
2023-03-21T12:34:35.728Z,32.87
2023-03-21T12:37:05.149Z,34.11
2023-03-21T12:39:36.300Z,33.90
2023-03-21T12:42:40.048Z,33.82
2023-03-21T12:45:24.686Z,34.87
2023-03-21T12:48:14.445Z,34.29
2023-03-21T12:50:41.601Z,34.07
2023-03-21T12:53:32.742Z,34.09
2023-03-21T12:56:05.126Z,34.27
2023-03-21T12:58:43.024Z,34.57
2023-03-21T13:01:11.879Z,34.55
2023-03-21T13:03:42.574Z,33.85
2023-03-21T13:06:21.042Z,35.32
2023-03-21T13:09:18.114Z,34.99
2023-03-21T13:11:47.980Z,35.38
2023-03-21T13:14:22.875Z,35.14
2023-03-21T13:16:53.364Z,35.46
2023-03-21T13:19:38.644Z,35.51
2023-03-21T13:22:10.790Z,36.19
2023-03-21T13:25:09.419Z,35.81
2023-03-21T13:27:38.570Z,35.48
2023-03-21T13:30:14.380Z,35.85
2023-03-21T13:32:43.942Z,36.81
2023-03-21T13:35:18.721Z,36.11
2023-03-21T13:37:57.132Z,35.59
2023-03-21T13:40:35.083Z,34.63
2023-03-21T13:43:02.038Z,36.21
2023-03-21T13:45:52.129Z,35.81
2023-03-21T13:48:30.878Z,35.88
2023-03-21T13:51:03.237Z,35.86
2023-03-21T13:53:37.496Z,36.49
2023-03-21T13:56:14.660Z,36.99
2023-03-21T13:58:44.045Z,36.04
2023-03-21T14:01:10.608Z,36.47
2023-03-21T14:03:38.048Z,35.87
2023-03-21T14:06:05.996Z,36.56
2023-03-21T14:08:38.514Z,36.31
2023-03-21T14:11:09.310Z,36.86
2023-03-21T14:13:48.370Z,36.90
2023-03-21T14:16:18.857Z,36.86
2023-03-21T14:18:56.231Z,37.13
2023-03-21T14:21:29.211Z,37.47
2023-03-21T14:24:07.386Z,37.55
2023-03-21T14:26:42.198Z,37.80
2023-03-21T14:29:25.026Z,38.32
2023-03-21T14:31:54.566Z,38.17
2023-03-21T14:34:22.995Z,37.49
2023-03-21T14:36:57.506Z,37.11
2023-03-21T14:39:30.997Z,37.82
2023-03-21T14:42:04.102Z,37.22
2023-03-21T14:44:44.140Z,36.83
2023-03-21T14:47:24.804Z,37.84
2023-03-21T14:49:52.005Z,38.63
2023-03-21T14:52:37.095Z,38.99
2023-03-21T14:55:14.963Z,38.34
2023-03-21T14:57:42.189Z,38.73
2023-03-21T15:00:23.726Z,39.16
2023-03-21T15:02:51.890Z,39.82
2023-03-21T15:05:32.325Z,39.13
2023-03-21T15:08:02.059Z,39.70
2023-03-21T15:10:30.938Z,39.90
2023-03-21T15:13:01.179Z,40.38
2023-03-21T15:15:31.884Z,39.84
2023-03-21T15:18:05.140Z,40.42
2023-03-21T15:20:35.505Z,41.26
2023-03-21T15:23:07.064Z,41.19
2023-03-21T15:25:36.104Z,40.56
2023-03-21T15:28:05.389Z,40.95
2023-03-21T15:30:33.008Z,41.32
2023-03-21T15:33:07.721Z,41.61
2023-03-21T15:35:46.124Z,41.65
2023-03-21T15:38:40.818Z,41.71
2023-03-21T15:41:25.145Z,42.11
2023-03-21T15:44:10.337Z,42.87
2023-03-21T15:46:46.427Z,43.18
2023-03-21T15:49:12.923Z,43.20
2023-03-21T15:51:41.925Z,43.48
2023-03-21T15:54:17.799Z,44.38
2023-03-21T15:56:44.755Z,44.45
2023-03-21T15:59:16.309Z,44.48
2023-03-21T16:01:47.521Z,44.50
2023-03-21T16:04:14.519Z,44.80
2023-03-21T16:07:13.338Z,44.44
2023-03-21T16:09:48.321Z,45.34
2023-03-21T16:12:17.498Z,45.10
2023-03-21T16:14:45.254Z,45.81
2023-03-21T16:17:38.122Z,46.13
2023-03-21T16:20:17.828Z,46.32
2023-03-21T16:22:44.405Z,46.63
2023-03-21T16:25:12.135Z,46.82
2023-03-21T16:27:38.969Z,47.30
2023-03-21T16:30:06.741Z,47.75
2023-03-21T16:32:33.760Z,47.84
2023-03-21T16:35:01.234Z,47.31
2023-03-21T16:37:27.812Z,47.45
2023-03-21T16:39:54.440Z,48.37
2023-03-21T16:42:20.991Z,47.64
2023-03-21T16:44:47.558Z,47.92
2023-03-21T16:47:19.495Z,48.96
2023-03-21T16:49:46.993Z,49.22
2023-03-21T16:52:14.590Z,48.41
2023-03-21T16:54:42.048Z,49.54
2023-03-21T16:57:21.097Z,49.91
2023-03-21T16:59:47.724Z,50.11
2023-03-21T17:02:15.699Z,49.54
2023-03-21T17:04:42.580Z,50.45
2023-03-21T17:07:15.171Z,49.83
2023-03-21T17:09:43.234Z,50.29
2023-03-21T17:12:15.687Z,51.11
2023-03-21T17:14:44.541Z,51.62
2023-03-21T17:17:13.121Z,51.84
2023-03-21T17:19:43.613Z,52.06
2023-03-21T17:22:12.571Z,51.81
2023-03-21T17:24:40.870Z,52.21
2023-03-21T17:27:11.458Z,52.03
2023-03-21T17:29:38.229Z,51.83
2023-03-21T17:32:05.008Z,52.08
2023-03-21T17:34:31.630Z,52.79
2023-03-21T17:36:59.004Z,51.30
2023-03-21T17:39:27.103Z,50.87
2023-03-21T17:41:54.437Z,51.48
2023-03-21T17:44:21.078Z,51.30
2023-03-21T17:46:50.309Z,51.22
2023-03-21T17:49:18.117Z,52.65
2023-03-21T17:51:44.636Z,52.33
2023-03-21T17:54:11.128Z,52.24
2023-03-21T17:56:37.694Z,52.51
2023-03-21T17:59:07.173Z,52.71
2023-03-21T18:01:34.728Z,53.21
2023-03-21T18:04:04.082Z,52.66
2023-03-21T18:06:32.840Z,52.84
2023-03-21T18:09:00.456Z,53.24
2023-03-21T18:11:27.580Z,53.37
2023-03-21T18:14:06.556Z,53.92
2023-03-21T18:16:40.774Z,54.23
2023-03-21T18:19:07.333Z,54.13
2023-03-21T18:21:35.776Z,55.49
2023-03-21T18:24:02.466Z,55.22
2023-03-21T18:26:31.103Z,56.18
2023-03-21T18:29:57.017Z,55.79
2023-03-21T18:32:05.093Z,57.05
2023-03-21T18:34:33.073Z,56.97
2023-03-21T18:36:59.757Z,56.99
2023-03-21T18:39:30.193Z,57.35
2023-03-21T18:41:58.016Z,57.90
2023-03-21T18:44:25.053Z,58.07
2023-03-21T18:46:52.303Z,58.38
2023-03-21T18:50:02.114Z,58.20
2023-03-21T18:52:06.080Z,59.26
2023-03-21T18:54:32.738Z,59.02
2023-03-21T18:57:34.607Z,60.14
2023-03-21T18:59:48.137Z,60.10
2023-03-21T19:02:15.238Z,60.45
2023-03-21T19:04:45.082Z,60.45
2023-03-21T19:07:12.115Z,60.66
2023-03-21T19:10:05.198Z,61.76
2023-03-21T19:12:28.122Z,61.00
2023-03-21T19:14:55.247Z,61.27
2023-03-21T19:18:26.157Z,60.64
2023-03-21T19:20:11.526Z,61.45
2023-03-21T19:22:38.128Z,62.05
2023-03-21T19:25:05.586Z,61.57
2023-03-21T19:27:38.291Z,61.40
2023-03-21T19:30:14.480Z,62.31
2023-03-21T19:32:42.943Z,60.93
2023-03-21T19:35:10.449Z,61.44
2023-03-21T19:37:37.011Z,61.49
2023-03-21T19:40:08.046Z,61.51
2023-03-21T19:42:34.745Z,61.55
2023-03-21T19:45:01.395Z,61.25
2023-03-21T19:47:27.959Z,61.03
2023-03-21T19:52:41.268Z,61.38
2023-03-21T19:55:08.384Z,61.36
2023-03-21T19:57:35.752Z,60.98
2023-03-21T20:00:02.436Z,61.63
2023-03-21T20:02:37.132Z,61.42
2023-03-21T20:05:05.902Z,61.36
2023-03-21T20:07:32.983Z,61.12
2023-03-21T20:10:00.247Z,61.56
2023-03-21T20:12:26.915Z,61.16
2023-03-21T20:15:01.010Z,61.73
2023-03-21T20:17:37.900Z,62.27
2023-03-21T20:20:04.869Z,61.37
2023-03-21T20:23:03.382Z,62.39
2023-03-21T20:25:21.628Z,62.69
2023-03-21T20:28:12.720Z,62.31
2023-03-21T20:30:49.419Z,61.31
2023-03-21T20:33:16.215Z,61.26
2023-03-21T20:38:30.048Z,61.65
2023-03-21T20:41:00.917Z,61.34
2023-03-21T20:46:15.808Z,60.95
2023-03-21T20:48:42.378Z,61.39
2023-03-21T20:54:00.813Z,61.23
2023-03-21T20:56:27.501Z,60.83
2023-03-21T20:59:17.695Z,60.99
2023-03-21T21:01:40.612Z,61.61
2023-03-21T21:04:07.216Z,60.64
2023-03-21T21:06:33.993Z,60.97
2023-03-21T21:09:00.642Z,61.22
2023-03-21T21:12:04.986Z,60.86
2023-03-21T21:14:17.972Z,61.45
2023-03-21T21:16:44.969Z,61.30
2023-03-21T21:19:11.670Z,61.70
2023-03-21T21:21:38.326Z,61.22
2023-03-21T21:24:07.504Z,61.46
2023-03-21T21:26:35.203Z,60.94
2023-03-21T21:29:01.845Z,60.99
2023-03-21T21:31:28.529Z,61.13
2023-03-21T21:33:55.126Z,61.92
2023-03-21T21:36:21.775Z,60.91
2023-03-21T21:38:48.439Z,60.75
2023-03-21T21:41:19.330Z,61.14
2023-03-21T21:43:46.654Z,61.59
2023-03-21T21:46:13.953Z,61.53
2023-03-21T21:48:41.920Z,61.21
2023-03-21T21:51:09.015Z,61.54
2023-03-21T21:53:36.251Z,61.08
2023-03-21T21:56:04.319Z,61.74
2023-03-21T21:58:30.882Z,61.59
2023-03-21T22:01:01.424Z,61.97
2023-03-21T22:03:28.181Z,62.23
2023-03-21T22:06:02.064Z,62.34
2023-03-21T22:08:28.656Z,62.13
2023-03-21T22:10:55.281Z,62.32
2023-03-21T22:13:21.972Z,62.44
2023-03-21T22:15:48.527Z,62.17
2023-03-21T22:18:15.085Z,62.33
2023-03-21T22:20:41.629Z,62.83
2023-03-21T22:23:08.176Z,62.78
2023-03-21T22:25:34.781Z,63.15
2023-03-21T22:28:01.311Z,62.23
2023-03-21T22:30:27.955Z,62.75
2023-03-21T22:33:08.565Z,62.46
2023-03-21T22:35:36.100Z,62.50
2023-03-21T22:38:02.794Z,62.99
2023-03-21T22:40:29.367Z,62.42
2023-03-21T22:42:55.864Z,62.34
2023-03-21T22:45:22.429Z,62.47
2023-03-21T22:47:49.016Z,62.44
2023-03-21T22:50:15.572Z,62.32
2023-03-21T22:52:42.099Z,62.25
2023-03-21T22:55:08.946Z,62.38
2023-03-21T22:57:35.699Z,62.57
2023-03-21T23:00:02.640Z,62.72
2023-03-21T23:02:29.191Z,62.55
2023-03-21T23:04:55.754Z,62.60
2023-03-21T23:07:22.346Z,62.40
2023-03-21T23:09:49.047Z,62.59
2023-03-21T23:12:15.666Z,63.38
2023-03-21T23:14:42.352Z,63.11
2023-03-21T23:17:08.924Z,63.56
2023-03-21T23:19:35.681Z,63.19
2023-03-21T23:22:02.214Z,63.61
2023-03-21T23:24:28.780Z,63.68
2023-03-21T23:26:55.409Z,64.25
2023-03-21T23:29:22.007Z,64.27
2023-03-21T23:31:48.622Z,64.55
2023-03-21T23:34:15.364Z,63.99
2023-03-21T23:36:42.032Z,64.22
2023-03-21T23:39:09.243Z,63.84
2023-03-21T23:41:35.835Z,63.92
2023-03-21T23:44:02.924Z,64.03
2023-03-21T23:46:29.516Z,64.73
2023-03-21T23:48:56.092Z,64.72
2023-03-21T23:51:22.939Z,65.43
2023-03-21T23:53:49.773Z,64.92
2023-03-21T23:56:21.598Z,64.57
2023-03-21T23:58:48.937Z,65.51
